sensor_id;sensor_type;location;lat;lon;timestamp;pressure;altitude;pressure_sealevel;temperature;humidity
62779;BME280;48821;48.796;2.396;2022-11-20T08:55:29;101116.69;;;9.58;63.51
62779;BME280;48821;48.796;2.396;2022-11-20T08:56:39;101115.81;;;9.59;63.25
62779;BME280;48821;48.796;2.396;2022-11-20T08:57:49;101115.75;;;9.62;63.32
62779;BME280;48821;48.796;2.396;2022-11-20T08:59:00;101111.34;;;9.64;63.28
62779;BME280;48821;48.796;2.396;2022-11-20T09:00:11;101120.03;;;9.66;63.27
62779;BME280;48821;48.796;2.396;2022-11-20T09:01:31;101117.34;;;9.68;63.66
62779;BME280;48821;48.796;2.396;2022-11-20T09:02:41;101109.47;;;9.70;63.80
62779;BME280;48821;48.796;2.396;2022-11-20T09:03:51;101112.03;;;9.73;64.08
62779;BME280;48821;48.796;2.396;2022-11-20T09:05:02;101104.97;;;9.75;63.64
62779;BME280;48821;48.796;2.396;2022-11-20T09:06:13;101095.31;;;9.77;64.13
62779;BME280;48821;48.796;2.396;2022-11-20T09:07:24;101110.97;;;9.80;63.58
62779;BME280;48821;48.796;2.396;2022-11-20T09:08:35;101108.34;;;9.80;63.67
62779;BME280;48821;48.796;2.396;2022-11-20T09:09:46;101098.69;;;9.81;63.92
62779;BME280;48821;48.796;2.396;2022-11-20T09:10:57;101102.19;;;9.81;63.51
62779;BME280;48821;48.796;2.396;2022-11-20T09:12:07;101097.00;;;9.79;63.56
62779;BME280;48821;48.796;2.396;2022-11-20T09:13:18;101097.84;;;9.80;63.76
62779;BME280;48821;48.796;2.396;2022-11-20T09:14:29;101089.94;;;9.82;63.80
62779;BME280;48821;48.796;2.396;2022-11-20T09:15:40;101089.00;;;9.84;64.04
62779;BME280;48821;48.796;2.396;2022-11-20T09:16:50;101095.03;;;9.88;64.04
62779;BME280;48821;48.796;2.396;2022-11-20T09:18:02;101096.72;;;9.90;63.75
62779;BME280;48821;48.796;2.396;2022-11-20T09:19:14;101094.03;;;9.94;63.66
62779;BME280;48821;48.796;2.396;2022-11-20T09:20:26;101092.22;;;9.96;63.75
62779;BME280;48821;48.796;2.396;2022-11-20T09:21:36;101098.34;;;9.96;63.41
62779;BME280;48821;48.796;2.396;2022-11-20T09:22:47;101088.69;;;9.97;63.70
62779;BME280;48821;48.796;2.396;2022-11-20T09:23:58;101085.16;;;9.98;63.67
62779;BME280;48821;48.796;2.396;2022-11-20T09:25:08;101089.53;;;9.99;63.39
62779;BME280;48821;48.796;2.396;2022-11-20T09:26:19;101093.00;;;9.99;63.22
62779;BME280;48821;48.796;2.396;2022-11-20T09:27:29;101093.94;;;9.97;63.40
62779;BME280;48821;48.796;2.396;2022-11-20T09:28:40;101086.97;;;9.96;63.66
62779;BME280;48821;48.796;2.396;2022-11-20T09:29:50;101079.94;;;9.96;63.88
62779;BME280;48821;48.796;2.396;2022-11-20T09:31:04;101081.69;;;9.97;64.07
62779;BME280;48821;48.796;2.396;2022-11-20T09:32:15;101074.75;;;9.95;63.41
62779;BME280;48821;48.796;2.396;2022-11-20T09:33:26;101080.84;;;9.95;63.99
62779;BME280;48821;48.796;2.396;2022-11-20T09:34:37;101073.00;;;9.94;64.04
62779;BME280;48821;48.796;2.396;2022-11-20T09:35:47;101066.03;;;9.93;64.15
62779;BME280;48821;48.796;2.396;2022-11-20T09:36:57;101070.38;;;9.94;64.11
62779;BME280;48821;48.796;2.396;2022-11-20T09:38:08;101059.94;;;9.90;64.56
62779;BME280;48821;48.796;2.396;2022-11-20T09:39:20;101060.88;;;9.89;64.38
62779;BME280;48821;48.796;2.396;2022-11-20T09:40:31;101061.63;;;9.93;64.63
62779;BME280;48821;48.796;2.396;2022-11-20T09:43:19;101056.44;;;9.92;64.85
62779;BME280;48821;48.796;2.396;2022-11-20T09:46:23;101054.63;;;9.94;64.50
62779;BME280;48821;48.796;2.396;2022-11-20T09:51:36;101047.69;;;9.91;65.16
62779;BME280;48821;48.796;2.396;2022-11-20T09:52:58;101045.06;;;9.91;65.15
62779;BME280;48821;48.796;2.396;2022-11-20T09:54:19;101054.75;;;9.89;65.15
62779;BME280;48821;48.796;2.396;2022-11-20T09:55:30;101059.19;;;9.87;65.20
62779;BME280;48821;48.796;2.396;2022-11-20T09:56:53;101053.06;;;9.86;65.69
62779;BME280;48821;48.796;2.396;2022-11-20T09:58:19;101055.75;;;9.85;65.39
62779;BME280;48821;48.796;2.396;2022-11-20T09:59:39;101051.31;;;9.85;65.86
62779;BME280;48821;48.796;2.396;2022-11-20T10:00:51;101058.31;;;9.86;65.70
62779;BME280;48821;48.796;2.396;2022-11-20T10:02:16;101059.13;;;9.88;65.49
62779;BME280;48821;48.796;2.396;2022-11-20T10:03:41;101050.31;;;9.91;65.99
62779;BME280;48821;48.796;2.396;2022-11-20T10:06:34;101053.75;;;9.95;65.70
62779;BME280;48821;48.796;2.396;2022-11-20T10:09:37;101046.81;;;9.92;65.81
62779;BME280;48821;48.796;2.396;2022-11-20T10:10:54;101044.06;;;9.95;66.35
62779;BME280;48821;48.796;2.396;2022-11-20T10:14:37;101043.13;;;9.99;65.86
62779;BME280;48821;48.796;2.396;2022-11-20T10:21:30;101048.31;;;10.01;66.07
62779;BME280;48821;48.796;2.396;2022-11-20T10:24:42;101043.88;;;10.05;66.23
62779;BME280;48821;48.796;2.396;2022-11-20T10:26:29;101029.88;;;10.04;66.24
62779;BME280;48821;48.796;2.396;2022-11-20T10:29:15;101019.38;;;10.04;66.20
62779;BME280;48821;48.796;2.396;2022-11-20T10:30:27;101010.56;;;10.05;66.93
62779;BME280;48821;48.796;2.396;2022-11-20T10:31:42;101011.41;;;10.07;66.65
62779;BME280;48821;48.796;2.396;2022-11-20T10:33:00;101013.97;;;10.09;66.93
62779;BME280;48821;48.796;2.396;2022-11-20T10:34:27;101023.63;;;10.08;66.54
62779;BME280;48821;48.796;2.396;2022-11-20T10:35:44;101014.94;;;10.06;66.38
62779;BME280;48821;48.796;2.396;2022-11-20T10:37:05;101018.38;;;10.08;66.57
62779;BME280;48821;48.796;2.396;2022-11-20T10:38:31;101008.66;;;10.12;67.00
62779;BME280;48821;48.796;2.396;2022-11-20T10:39:51;101020.75;;;10.18;67.03
62779;BME280;48821;48.796;2.396;2022-11-20T10:41:05;101007.47;;;10.24;67.29
62779;BME280;48821;48.796;2.396;2022-11-20T10:42:43;101001.94;;;10.33;66.79
62779;BME280;48821;48.796;2.396;2022-11-20T10:44:19;100994.72;;;10.42;66.90
62779;BME280;48821;48.796;2.396;2022-11-20T10:45:58;100996.28;;;10.49;66.90
62779;BME280;48821;48.796;2.396;2022-11-20T10:47:15;100984.84;;;10.52;67.24
62779;BME280;48821;48.796;2.396;2022-11-20T10:48:27;100984.84;;;10.52;66.83
62779;BME280;48821;48.796;2.396;2022-11-20T10:49:38;100991.81;;;10.53;66.70
62779;BME280;48821;48.796;2.396;2022-11-20T10:56:00;100987.56;;;10.79;66.67
62779;BME280;48821;48.796;2.396;2022-11-20T11:00:12;100980.06;;;10.95;66.45
62779;BME280;48821;48.796;2.396;2022-11-20T11:01:23;100979.09;;;10.98;66.35
62779;BME280;48821;48.796;2.396;2022-11-20T11:02:39;100976.34;;;11.02;66.70
62779;BME280;48821;48.796;2.396;2022-11-20T11:03:52;100978.00;;;11.05;66.63
62779;BME280;48821;48.796;2.396;2022-11-20T11:05:17;100978.75;;;11.09;66.57
62779;BME280;48821;48.796;2.396;2022-11-20T11:06:40;100979.53;;;11.12;66.39
62779;BME280;48821;48.796;2.396;2022-11-20T11:07:55;100980.34;;;11.14;66.26
62779;BME280;48821;48.796;2.396;2022-11-20T11:09:13;100975.94;;;11.15;66.80
62779;BME280;48821;48.796;2.396;2022-11-20T11:10:37;100968.81;;;11.19;66.71
62779;BME280;48821;48.796;2.396;2022-11-20T11:11:51;100980.19;;;11.19;67.06
62779;BME280;48821;48.796;2.396;2022-11-20T11:13:01;100976.69;;;11.19;66.35
62779;BME280;48821;48.796;2.396;2022-11-20T11:14:14;100982.88;;;11.18;66.67
62779;BME280;48821;48.796;2.396;2022-11-20T11:15:39;100980.28;;;11.16;67.05
62779;BME280;48821;48.796;2.396;2022-11-20T11:16:55;100970.63;;;11.17;67.08
62779;BME280;48821;48.796;2.396;2022-11-20T11:18:10;100975.03;;;11.16;66.96
62779;BME280;48821;48.796;2.396;2022-11-20T11:19:20;100968.00;;;11.17;67.03
62779;BME280;48821;48.796;2.396;2022-11-20T11:20:31;100959.25;;;11.16;67.03
62779;BME280;48821;48.796;2.396;2022-11-20T11:21:54;100958.34;;;11.17;67.01
62779;BME280;48821;48.796;2.396;2022-11-20T11:23:10;100959.22;;;11.18;67.15
62779;BME280;48821;48.796;2.396;2022-11-20T11:24:32;100948.63;;;11.19;67.31
62779;BME280;48821;48.796;2.396;2022-11-20T11:25:56;100948.63;;;11.19;67.25
62779;BME280;48821;48.796;2.396;2022-11-20T11:27:13;100951.31;;;11.18;67.38
62779;BME280;48821;48.796;2.396;2022-11-20T11:28:25;100945.34;;;11.12;67.02
62779;BME280;48821;48.796;2.396;2022-11-20T11:29:37;100941.09;;;11.08;67.26
62779;BME280;48821;48.796;2.396;2022-11-20T11:30:47;100949.00;;;11.07;67.53
62779;BME280;48821;48.796;2.396;2022-11-20T11:32:11;100943.75;;;11.07;67.59
62779;BME280;48821;48.796;2.396;2022-11-20T11:33:32;100949.81;;;11.09;67.93
62779;BME280;48821;48.796;2.396;2022-11-20T11:34:58;100947.25;;;11.07;67.43
62779;BME280;48821;48.796;2.396;2022-11-20T11:36:19;100943.75;;;11.07;67.29
62779;BME280;48821;48.796;2.396;2022-11-20T11:37:37;100956.91;;;11.07;67.64
62779;BME280;48821;48.796;2.396;2022-11-20T11:38:51;100957.84;;;11.06;67.99
62779;BME280;48821;48.796;2.396;2022-11-20T11:40:04;100946.44;;;11.05;68.22
62779;BME280;48821;48.796;2.396;2022-11-20T11:41:28;100958.69;;;11.06;67.81
62779;BME280;48821;48.796;2.396;2022-11-20T11:42:43;100954.28;;;11.07;67.87
62779;BME280;48821;48.796;2.396;2022-11-20T11:43:58;100945.53;;;11.06;68.01
62779;BME280;48821;48.796;2.396;2022-11-20T11:45:28;100942.94;;;11.05;67.93
62779;BME280;48821;48.796;2.396;2022-11-20T11:46:43;100944.78;;;11.02;67.61
62779;BME280;48821;48.796;2.396;2022-11-20T11:48:03;100935.16;;;11.01;68.07
62779;BME280;48821;48.796;2.396;2022-11-20T11:49:17;100940.41;;;11.01;68.31
62779;BME280;48821;48.796;2.396;2022-11-20T11:50:28;100929.88;;;11.01;67.83
62779;BME280;48821;48.796;2.396;2022-11-20T11:52:07;100936.97;;;10.99;68.07
62779;BME280;48821;48.796;2.396;2022-11-20T11:53:21;100940.47;;;11.00;68.30
62779;BME280;48821;48.796;2.396;2022-11-20T11:54:53;100934.34;;;10.99;68.10
62779;BME280;48821;48.796;2.396;2022-11-20T11:56:08;100925.63;;;10.97;68.23
62779;BME280;48821;48.796;2.396;2022-11-20T11:58:48;100924.84;;;10.95;68.19
62779;BME280;48821;48.796;2.396;2022-11-20T12:00:13;100919.56;;;10.95;68.50
62779;BME280;48821;48.796;2.396;2022-11-20T12:04:13;100913.28;;;11.01;68.49
62779;BME280;48821;48.796;2.396;2022-11-20T12:05:28;100908.84;;;11.01;68.41
62779;BME280;48821;48.796;2.396;2022-11-20T12:06:42;100914.06;;;11.03;68.09
62779;BME280;48821;48.796;2.396;2022-11-20T12:08:02;100901.78;;;11.03;68.49
62779;BME280;48821;48.796;2.396;2022-11-20T12:09:14;100907.84;;;11.06;68.61
62779;BME280;48821;48.796;2.396;2022-11-20T12:12:18;100904.25;;;11.08;68.37
62779;BME280;48821;48.796;2.396;2022-11-20T12:14:46;100899.09;;;11.05;68.09
62779;BME280;48821;48.796;2.396;2022-11-20T12:15:57;100897.38;;;11.04;68.29
62779;BME280;48821;48.796;2.396;2022-11-20T12:17:12;100904.44;;;11.02;67.73
62779;BME280;48821;48.796;2.396;2022-11-20T12:18:23;100894.88;;;10.99;68.31
62779;BME280;48821;48.796;2.396;2022-11-20T12:19:34;100894.00;;;10.99;68.16
62779;BME280;48821;48.796;2.396;2022-11-20T12:21:01;100880.03;;;10.98;67.95
62779;BME280;48821;48.796;2.396;2022-11-20T12:24:04;100881.59;;;11.04;68.46
62779;BME280;48821;48.796;2.396;2022-11-20T12:25:24;100885.00;;;11.08;68.42
62779;BME280;48821;48.796;2.396;2022-11-20T12:28:29;100880.38;;;11.14;68.21
62779;BME280;48821;48.796;2.396;2022-11-20T12:36:44;100886.97;;;11.28;67.84
62779;BME280;48821;48.796;2.396;2022-11-20T12:39:35;100885.16;;;11.29;67.74
62779;BME280;48821;48.796;2.396;2022-11-20T12:49:37;100890.03;;;11.41;67.71
62779;BME280;48821;48.796;2.396;2022-11-20T12:52:30;100885.56;;;11.43;68.10
62779;BME280;48821;48.796;2.396;2022-11-20T12:54:42;100893.44;;;11.43;67.45
62779;BME280;48821;48.796;2.396;2022-11-20T12:58:54;100907.63;;;11.39;67.39
62779;BME280;48821;48.796;2.396;2022-11-20T13:01:25;100901.56;;;11.37;67.69
62779;BME280;48821;48.796;2.396;2022-11-20T13:06:51;100902.59;;;11.33;68.33
62779;BME280;48821;48.796;2.396;2022-11-20T13:08:02;100896.47;;;11.32;68.43
62779;BME280;48821;48.796;2.396;2022-11-20T13:09:16;100905.25;;;11.31;68.18
62779;BME280;48821;48.796;2.396;2022-11-20T13:10:50;100900.13;;;11.28;68.01
62779;BME280;48821;48.796;2.396;2022-11-20T13:12:07;100900.16;;;11.27;68.16
62779;BME280;48821;48.796;2.396;2022-11-20T13:14:42;100898.44;;;11.25;68.48
62779;BME280;48821;48.796;2.396;2022-11-20T13:16:06;100901.97;;;11.24;68.71
62779;BME280;48821;48.796;2.396;2022-11-20T13:17:36;100882.59;;;11.27;68.39
62779;BME280;48821;48.796;2.396;2022-11-20T13:18:50;100874.78;;;11.25;68.66
62779;BME280;48821;48.796;2.396;2022-11-20T13:20:02;100880.78;;;11.29;69.16
62779;BME280;48821;48.796;2.396;2022-11-20T13:21:50;100867.59;;;11.31;69.11
62779;BME280;48821;48.796;2.396;2022-11-20T13:22:55;100864.03;;;11.32;69.06
62779;BME280;48821;48.796;2.396;2022-11-20T13:25:33;100868.41;;;11.31;69.13
62779;BME280;48821;48.796;2.396;2022-11-20T13:26:44;100876.31;;;11.31;69.25
62779;BME280;48821;48.796;2.396;2022-11-20T13:27:57;100873.66;;;11.33;69.57
62779;BME280;48821;48.796;2.396;2022-11-20T13:29:11;100876.16;;;11.36;69.41
62779;BME280;48821;48.796;2.396;2022-11-20T13:30:26;100875.31;;;11.35;69.41
62779;BME280;48821;48.796;2.396;2022-11-20T13:31:41;100878.78;;;11.36;69.24
62779;BME280;48821;48.796;2.396;2022-11-20T13:33:21;100889.22;;;11.39;69.13
62779;BME280;48821;48.796;2.396;2022-11-20T13:34:35;100890.97;;;11.39;69.07
62779;BME280;48821;48.796;2.396;2022-11-20T13:35:59;100891.91;;;11.38;69.18
62779;BME280;48821;48.796;2.396;2022-11-20T13:37:25;100892.78;;;11.38;68.98
62779;BME280;48821;48.796;2.396;2022-11-20T13:38:43;100900.53;;;11.41;69.22
62779;BME280;48821;48.796;2.396;2022-11-20T13:41:32;100891.69;;;11.44;68.87
62779;BME280;48821;48.796;2.396;2022-11-20T13:42:55;100897.91;;;11.41;68.89
62779;BME280;48821;48.796;2.396;2022-11-20T13:45:24;100883.94;;;11.39;69.32
62779;BME280;48821;48.796;2.396;2022-11-20T13:46:42;100889.22;;;11.39;69.68
62779;BME280;48821;48.796;2.396;2022-11-20T13:47:55;100896.22;;;11.40;69.33
62779;BME280;48821;48.796;2.396;2022-11-20T13:49:08;100896.09;;;11.43;69.39
62779;BME280;48821;48.796;2.396;2022-11-20T13:50:27;100893.31;;;11.48;69.66
62779;BME280;48821;48.796;2.396;2022-11-20T13:51:50;100888.78;;;11.52;69.44
62779;BME280;48821;48.796;2.396;2022-11-20T13:56:14;100883.38;;;11.56;69.85
62779;BME280;48821;48.796;2.396;2022-11-20T13:59:17;100888.47;;;11.61;69.17
62779;BME280;48821;48.796;2.396;2022-11-20T14:00:44;100887.56;;;11.62;69.30
62779;BME280;48821;48.796;2.396;2022-11-20T14:01:55;100896.28;;;11.64;69.04
62779;BME280;48821;48.796;2.396;2022-11-20T14:04:22;100889.94;;;11.70;69.28
62779;BME280;48821;48.796;2.396;2022-11-20T14:05:39;100889.00;;;11.71;69.26
62779;BME280;48821;48.796;2.396;2022-11-20T14:06:50;100890.66;;;11.74;69.14
62779;BME280;48821;48.796;2.396;2022-11-20T14:08:03;100883.63;;;11.74;69.40
62779;BME280;48821;48.796;2.396;2022-11-20T14:09:53;100887.00;;;11.78;69.16
62779;BME280;48821;48.796;2.396;2022-11-20T14:11:22;100886.22;;;11.76;69.22
62779;BME280;48821;48.796;2.396;2022-11-20T14:12:34;100887.88;;;11.78;69.30
62779;BME280;48821;48.796;2.396;2022-11-20T14:15:05;100891.44;;;11.77;69.18
62779;BME280;48821;48.796;2.396;2022-11-20T14:16:19;100894.00;;;11.79;69.27
62779;BME280;48821;48.796;2.396;2022-11-20T14:17:33;100887.00;;;11.78;69.23
62779;BME280;48821;48.796;2.396;2022-11-20T14:18:43;100872.22;;;11.75;69.19
62779;BME280;48821;48.796;2.396;2022-11-20T14:19:55;100880.13;;;11.74;69.14
62779;BME280;48821;48.796;2.396;2022-11-20T14:21:09;100874.13;;;11.70;69.43
62779;BME280;48821;48.796;2.396;2022-11-20T14:22:24;100872.41;;;11.69;69.14
62779;BME280;48821;48.796;2.396;2022-11-20T14:23:35;100874.25;;;11.67;69.43
62779;BME280;48821;48.796;2.396;2022-11-20T14:25:01;100871.72;;;11.64;69.45
62779;BME280;48821;48.796;2.396;2022-11-20T14:26:14;100876.25;;;11.60;69.43
62779;BME280;48821;48.796;2.396;2022-11-20T14:27:28;100879.88;;;11.56;69.65
62779;BME280;48821;48.796;2.396;2022-11-20T14:28:39;100876.44;;;11.54;69.38
62779;BME280;48821;48.796;2.396;2022-11-20T14:29:50;100868.66;;;11.51;69.48
62779;BME280;48821;48.796;2.396;2022-11-20T14:31:00;100869.63;;;11.48;69.68
62779;BME280;48821;48.796;2.396;2022-11-20T14:32:11;100868.78;;;11.47;69.47
62779;BME280;48821;48.796;2.396;2022-11-20T14:33:22;100860.00;;;11.47;69.79
62779;BME280;48821;48.796;2.396;2022-11-20T14:34:40;100860.91;;;11.46;69.45
62779;BME280;48821;48.796;2.396;2022-11-20T14:35:54;100871.50;;;11.44;69.87
62779;BME280;48821;48.796;2.396;2022-11-20T14:37:09;100869.75;;;11.43;69.72
62779;BME280;48821;48.796;2.396;2022-11-20T14:38:28;100875.97;;;11.42;69.84
62779;BME280;48821;48.796;2.396;2022-11-20T14:39:46;100884.72;;;11.43;69.95
62779;BME280;48821;48.796;2.396;2022-11-20T14:41:08;100879.50;;;11.41;70.10
62779;BME280;48821;48.796;2.396;2022-11-20T14:42:24;100879.50;;;11.41;70.19
62779;BME280;48821;48.796;2.396;2022-11-20T14:43:36;100884.72;;;11.43;70.11
62779;BME280;48821;48.796;2.396;2022-11-20T14:44:49;100878.59;;;11.42;70.10
62779;BME280;48821;48.796;2.396;2022-11-20T14:46:03;100883.69;;;11.47;70.27
62779;BME280;48821;48.796;2.396;2022-11-20T14:47:18;100892.34;;;11.51;70.28
62779;BME280;48821;48.796;2.396;2022-11-20T14:49:57;100886.94;;;11.55;70.26
62779;BME280;48821;48.796;2.396;2022-11-20T14:51:33;100888.53;;;11.59;70.42
62779;BME280;48821;48.796;2.396;2022-11-20T14:52:55;100884.97;;;11.61;70.35
62779;BME280;48821;48.796;2.396;2022-11-20T14:54:17;100886.69;;;11.62;70.04
62779;BME280;48821;48.796;2.396;2022-11-20T14:55:37;100894.53;;;11.63;70.26
62779;BME280;48821;48.796;2.396;2022-11-20T14:57:29;100892.59;;;11.68;70.15
62779;BME280;48821;48.796;2.396;2022-11-20T14:58:41;100897.03;;;11.68;70.09
62779;BME280;48821;48.796;2.396;2022-11-20T15:00:02;100897.03;;;11.68;70.17
62779;BME280;48821;48.796;2.396;2022-11-20T15:01:13;100904.88;;;11.69;69.96
62779;BME280;48821;48.796;2.396;2022-11-20T15:02:24;100897.03;;;11.68;70.21
62779;BME280;48821;48.796;2.396;2022-11-20T15:03:37;100901.44;;;11.67;70.03
62779;BME280;48821;48.796;2.396;2022-11-20T15:04:49;100914.59;;;11.67;70.24
62779;BME280;48821;48.796;2.396;2022-11-20T15:06:00;100911.97;;;11.67;70.05
62779;BME280;48821;48.796;2.396;2022-11-20T15:07:10;100916.31;;;11.68;70.28
62779;BME280;48821;48.796;2.396;2022-11-20T15:08:21;100917.22;;;11.67;70.16
62779;BME280;48821;48.796;2.396;2022-11-20T15:09:31;100908.41;;;11.68;69.96
62779;BME280;48821;48.796;2.396;2022-11-20T15:10:46;100911.97;;;11.67;70.36
62779;BME280;48821;48.796;2.396;2022-11-20T15:12:00;100911.91;;;11.69;70.44
62779;BME280;48821;48.796;2.396;2022-11-20T15:13:13;100914.44;;;11.72;70.36
62779;BME280;48821;48.796;2.396;2022-11-20T15:14:27;100917.06;;;11.72;70.21
62779;BME280;48821;48.796;2.396;2022-11-20T15:15:52;100925.84;;;11.73;69.93
62779;BME280;48821;48.796;2.396;2022-11-20T15:17:04;100918.75;;;11.75;70.08
62779;BME280;48821;48.796;2.396;2022-11-20T15:18:30;100913.47;;;11.75;70.08
62779;BME280;48821;48.796;2.396;2022-11-20T15:19:41;100930.00;;;11.78;70.09
62779;BME280;48821;48.796;2.396;2022-11-20T15:20:51;100929.03;;;11.81;69.98
62779;BME280;48821;48.796;2.396;2022-11-20T15:22:10;100930.69;;;11.85;70.07
62779;BME280;48821;48.796;2.396;2022-11-20T15:23:23;100921.84;;;11.86;70.31
62779;BME280;48821;48.796;2.396;2022-11-20T15:24:34;100914.88;;;11.85;70.08
62779;BME280;48821;48.796;2.396;2022-11-20T15:25:45;100924.47;;;11.86;70.08
62779;BME280;48821;48.796;2.396;2022-11-20T15:26:56;100927.03;;;11.88;70.17
62779;BME280;48821;48.796;2.396;2022-11-20T15:28:29;100927.88;;;11.90;70.07
62779;BME280;48821;48.796;2.396;2022-11-20T15:29:41;100927.88;;;11.90;69.50
62779;BME280;48821;48.796;2.396;2022-11-20T15:30:52;100927.81;;;11.91;69.44
62779;BME280;48821;48.796;2.396;2022-11-20T15:32:02;100929.53;;;11.92;69.46
62779;BME280;48821;48.796;2.396;2022-11-20T15:33:13;100933.97;;;11.90;69.50
62779;BME280;48821;48.796;2.396;2022-11-20T15:34:26;100924.28;;;11.92;69.69
62779;BME280;48821;48.796;2.396;2022-11-20T15:35:37;100935.66;;;11.93;69.43
62779;BME280;48821;48.796;2.396;2022-11-20T15:36:47;100936.41;;;11.97;69.27
62779;BME280;48821;48.796;2.396;2022-11-20T15:37:58;100928.50;;;11.97;69.43
62779;BME280;48821;48.796;2.396;2022-11-20T15:39:09;100923.25;;;11.97;69.29
62779;BME280;48821;48.796;2.396;2022-11-20T15:40:19;100930.16;;;11.99;69.24
62779;BME280;48821;48.796;2.396;2022-11-20T15:41:29;100931.88;;;12.00;68.42
62779;BME280;48821;48.796;2.396;2022-11-20T15:42:40;100931.94;;;11.99;68.08
62779;BME280;48821;48.796;2.396;2022-11-20T15:44:10;100930.09;;;12.01;68.39
62779;BME280;48821;48.796;2.396;2022-11-20T15:45:20;100923.13;;;12.00;67.98
62779;BME280;48821;48.796;2.396;2022-11-20T15:46:33;100928.28;;;12.03;68.31
62779;BME280;48821;48.796;2.396;2022-11-20T15:47:48;100929.19;;;12.02;68.13
62779;BME280;48821;48.796;2.396;2022-11-20T15:48:59;100938.88;;;12.01;67.59
62779;BME280;48821;48.796;2.396;2022-11-20T15:50:13;100938.88;;;12.01;67.35
62779;BME280;48821;48.796;2.396;2022-11-20T15:51:35;100936.31;;;12.00;66.34
62779;BME280;48821;48.796;2.396;2022-11-20T15:52:45;100927.56;;;11.98;67.06
62779;BME280;48821;48.796;2.396;2022-11-20T15:53:56;100930.28;;;11.96;66.97
62779;BME280;48821;48.796;2.396;2022-11-20T15:55:09;100940.75;;;11.98;66.82
62779;BME280;48821;48.796;2.396;2022-11-20T15:56:20;100943.44;;;11.96;65.60
62779;BME280;48821;48.796;2.396;2022-11-20T15:57:30;100940.88;;;11.95;65.41
62779;BME280;48821;48.796;2.396;2022-11-20T15:58:41;100939.22;;;11.92;64.49
62779;BME280;48821;48.796;2.396;2022-11-20T15:59:52;100947.22;;;11.89;63.88
62779;BME280;48821;48.796;2.396;2022-11-20T16:01:02;100945.59;;;11.85;63.99
62779;BME280;48821;48.796;2.396;2022-11-20T16:02:14;100955.38;;;11.81;64.71
62779;BME280;48821;48.796;2.396;2022-11-20T16:03:25;100949.38;;;11.77;64.04
62779;BME280;48821;48.796;2.396;2022-11-20T16:04:35;100946.78;;;11.76;64.87
62779;BME280;48821;48.796;2.396;2022-11-20T16:05:46;100954.81;;;11.73;64.47
62779;BME280;48821;48.796;2.396;2022-11-20T16:06:56;100955.75;;;11.70;64.19
62779;BME280;48821;48.796;2.396;2022-11-20T16:08:07;100952.44;;;11.65;64.73
62779;BME280;48821;48.796;2.396;2022-11-20T16:09:17;100954.25;;;11.63;64.76
62779;BME280;48821;48.796;2.396;2022-11-20T16:10:27;100953.41;;;11.61;64.92
62779;BME280;48821;48.796;2.396;2022-11-20T16:11:38;100956.13;;;11.59;64.59
62779;BME280;48821;48.796;2.396;2022-11-20T16:12:48;100958.81;;;11.57;63.78
62779;BME280;48821;48.796;2.396;2022-11-20T16:14:18;100956.34;;;11.53;63.81
62779;BME280;48821;48.796;2.396;2022-11-20T16:16:10;100958.19;;;11.49;64.14
62779;BME280;48821;48.796;2.396;2022-11-20T16:17:21;100953.00;;;11.47;64.48
62779;BME280;48821;48.796;2.396;2022-11-20T16:18:52;100958.25;;;11.47;64.37
62779;BME280;48821;48.796;2.396;2022-11-20T16:20:02;100960.09;;;11.45;64.27
62779;BME280;48821;48.796;2.396;2022-11-20T16:21:12;100953.97;;;11.43;64.04
62779;BME280;48821;48.796;2.396;2022-11-20T16:22:23;100959.25;;;11.43;64.19
62779;BME280;48821;48.796;2.396;2022-11-20T16:23:34;100949.75;;;11.39;64.29
62779;BME280;48821;48.796;2.396;2022-11-20T16:24:44;100955.94;;;11.38;64.02
62779;BME280;48821;48.796;2.396;2022-11-20T16:25:55;100964.66;;;11.39;64.44
62779;BME280;48821;48.796;2.396;2022-11-20T16:27:05;100973.50;;;11.38;63.82
62779;BME280;48821;48.796;2.396;2022-11-20T16:28:16;100974.44;;;11.35;64.31
62779;BME280;48821;48.796;2.396;2022-11-20T16:29:27;100978.84;;;11.34;64.11
62779;BME280;48821;48.796;2.396;2022-11-20T16:30:38;100978.91;;;11.33;64.59
62779;BME280;48821;48.796;2.396;2022-11-20T16:31:48;100976.38;;;11.30;64.43
62779;BME280;48821;48.796;2.396;2022-11-20T16:32:59;100975.50;;;11.29;64.46
62779;BME280;48821;48.796;2.396;2022-11-20T16:34:10;100979.09;;;11.27;64.74
62779;BME280;48821;48.796;2.396;2022-11-20T16:35:20;100974.75;;;11.25;64.81
62779;BME280;48821;48.796;2.396;2022-11-20T16:36:30;100976.56;;;11.23;64.27
62779;BME280;48821;48.796;2.396;2022-11-20T16:37:41;100972.22;;;11.22;64.79
62779;BME280;48821;48.796;2.396;2022-11-20T16:38:57;100970.47;;;11.21;64.91
62779;BME280;48821;48.796;2.396;2022-11-20T16:40:08;100969.66;;;11.19;65.50
62779;BME280;48821;48.796;2.396;2022-11-20T16:41:18;100968.94;;;11.16;64.95
62779;BME280;48821;48.796;2.396;2022-11-20T16:42:33;100966.31;;;11.14;65.11
62779;BME280;48821;48.796;2.396;2022-11-20T16:43:48;100975.16;;;11.13;65.19
62779;BME280;48821;48.796;2.396;2022-11-20T16:44:58;100973.47;;;11.10;65.61
62779;BME280;48821;48.796;2.396;2022-11-20T16:46:09;100971.78;;;11.08;65.94
62779;BME280;48821;48.796;2.396;2022-11-20T16:47:19;100964.84;;;11.05;65.31
62779;BME280;48821;48.796;2.396;2022-11-20T16:48:29;100971.97;;;11.01;65.67
62779;BME280;48821;48.796;2.396;2022-11-20T16:49:40;100966.81;;;10.98;65.74
62779;BME280;48821;48.796;2.396;2022-11-20T16:50:52;100969.53;;;10.95;65.74
62779;BME280;48821;48.796;2.396;2022-11-20T16:52:03;100969.63;;;10.92;65.96
62779;BME280;48821;48.796;2.396;2022-11-20T16:53:13;100967.06;;;10.90;66.05
62779;BME280;48821;48.796;2.396;2022-11-20T16:54:23;100962.75;;;10.88;65.94
62779;BME280;48821;48.796;2.396;2022-11-20T16:55:34;100968.91;;;10.87;65.48